Time;durP1;ratioP1;P1;durP2;ratioP2;P2;SDS_P1;SDS_P2;PMS_P1;PMS_P2;Temp;Humidity;BMP_temperature;BMP_pressure;BME280_temperature;BME280_humidity;BME280_pressure;Samples;Min_cycle;Max_cycle;Signal;HPM_P1;HPM_P2
2022/03/09 00:03:29;;;;;;;23.90;14.00;;;1.50;99.90;;;;;;10481881;28;20233;-79
2022/03/09 00:08:52;;;;;;;24.37;14.00;;;1.50;99.90;;;;;;10475232;28;20194;-78
2022/03/09 00:14:16;;;;;;;26.27;13.90;;;1.50;99.90;;;;;;10441524;28;20322;-77
2022/03/09 00:19:38;;;;;;;23.20;13.10;;;1.60;99.90;;;;;;10481292;28;20198;-76
2022/03/09 00:25:00;;;;;;;27.93;15.17;;;1.70;99.90;;;;;;10481635;28;20191;-78
2022/03/09 00:30:24;;;;;;;27.57;14.33;;;1.70;99.90;;;;;;10485375;28;20189;-78
2022/03/09 00:35:46;;;;;;;28.80;15.40;;;1.80;99.90;;;;;;10506843;28;20387;-78
2022/03/09 00:41:08;;;;;;;26.93;14.47;;;1.80;99.90;;;;;;10480406;28;20195;-77
2022/03/09 00:46:30;;;;;;;29.30;15.10;;;1.70;99.90;;;;;;10480864;28;20213;-79
2022/03/09 00:51:52;;;;;;;27.60;15.53;;;1.70;99.90;;;;;;10481136;28;20201;-77
2022/03/09 00:57:15;;;;;;;23.70;14.87;;;1.60;99.90;;;;;;10479289;28;20299;-78
2022/03/09 01:02:45;;;;;;;24.63;14.40;;;1.60;99.90;;;;;;10479594;28;20387;-77
2022/03/09 01:08:07;;;;;;;30.20;16.63;;;1.40;99.90;;;;;;10441127;28;20197;-76
2022/03/09 01:13:30;;;;;;;26.60;15.30;;;1.40;99.90;;;;;;10437475;28;20242;-76
2022/03/09 01:18:52;;;;;;;28.53;16.87;;;1.50;99.90;;;;;;10438646;28;20196;-78
2022/03/09 01:24:15;;;;;;;27.13;14.77;;;1.40;99.90;;;;;;10414353;28;20190;-77
2022/03/09 01:29:40;;;;;;;27.50;14.37;;;1.50;99.90;;;;;;10479630;28;20204;-77
2022/03/09 01:35:05;;;;;;;30.07;16.07;;;1.60;99.90;;;;;;10420744;28;20230;-78
2022/03/09 01:40:28;;;;;;;24.10;15.33;;;1.70;99.90;;;;;;10478097;28;20516;-77
2022/03/09 01:45:51;;;;;;;28.27;16.50;;;1.80;99.90;;;;;;10478550;28;20220;-77
2022/03/09 01:51:14;;;;;;;31.07;16.40;;;1.80;99.90;;;;;;10479030;28;20197;-77
2022/03/09 01:56:37;;;;;;;31.37;17.17;;;1.70;99.90;;;;;;10477330;28;20234;-78
2022/03/09 02:02:00;;;;;;;26.37;15.90;;;1.80;99.90;;;;;;10477622;28;20204;-77
2022/03/09 02:09:41;;;;;;;28.37;16.10;;;1.80;99.90;;;;;;10475505;28;20195;-77
2022/03/09 02:13:07;;;;;;;27.63;15.40;;;1.80;99.90;;;;;;10435888;28;20229;-77
2022/03/09 02:18:30;;;;;;;27.20;15.47;;;1.70;99.90;;;;;;10460782;28;20232;-77
2022/03/09 02:23:55;;;;;;;27.67;16.17;;;1.80;99.90;;;;;;10478008;28;20613;-77
2022/03/09 02:29:17;;;;;;;30.20;16.23;;;1.80;99.90;;;;;;10478094;28;20200;-77
2022/03/09 02:34:40;;;;;;;37.17;19.73;;;1.70;99.90;;;;;;10509332;28;20232;-78
2022/03/09 02:40:03;;;;;;;32.27;17.87;;;1.60;99.90;;;;;;10462706;28;20274;-77
2022/03/09 02:45:25;;;;;;;27.10;15.37;;;1.60;99.90;;;;;;10477422;28;20198;-78
2022/03/09 02:50:47;;;;;;;26.87;15.20;;;1.70;99.90;;;;;;10477615;28;20194;-78
2022/03/09 02:56:10;;;;;;;29.03;14.90;;;1.60;99.90;;;;;;10481168;28;20264;-78
2022/03/09 03:01:32;;;;;;;25.70;14.23;;;1.60;99.90;;;;;;10484322;28;20386;-77
2022/03/09 03:06:54;;;;;;;24.87;14.93;;;1.60;99.90;;;;;;10483024;28;20386;-77
2022/03/09 03:12:17;;;;;;;24.57;14.63;;;1.50;99.90;;;;;;10452152;28;20304;-77
2022/03/09 03:17:40;;;;;;;23.17;13.47;;;1.50;99.90;;;;;;10472455;28;20296;-77
2022/03/09 03:23:01;;;;;;;22.07;13.27;;;1.50;99.90;;;;;;10484320;28;20214;-77
2022/03/09 03:28:24;;;;;;;22.43;14.30;;;1.40;99.90;;;;;;10482638;28;20201;-77
2022/03/09 03:33:47;;;;;;;25.93;15.17;;;1.30;99.90;;;;;;10515614;28;20406;-76
2022/03/09 03:39:10;;;;;;;29.53;16.83;;;1.30;99.90;;;;;;10482559;28;20212;-77
2022/03/09 03:44:31;;;;;;;30.57;15.97;;;1.20;99.90;;;;;;10483609;28;20269;-78
2022/03/09 03:49:55;;;;;;;24.27;14.40;;;1.00;99.90;;;;;;10483245;28;20216;-77
2022/03/09 03:55:18;;;;;;;27.30;16.93;;;1.00;99.90;;;;;;10482146;28;20247;-76
2022/03/09 04:00:40;;;;;;;23.97;13.57;;;0.90;99.90;;;;;;10483381;28;20191;-76
2022/03/09 04:06:03;;;;;;;22.13;14.40;;;0.90;99.90;;;;;;10475444;28;20197;-77
2022/03/09 04:11:25;;;;;;;24.23;14.67;;;0.90;99.90;;;;;;10440923;28;20605;-77
2022/03/09 04:16:48;;;;;;;23.80;14.03;;;1.00;99.90;;;;;;10461227;28;20220;-77
2022/03/09 04:22:11;;;;;;;28.07;16.70;;;1.00;99.90;;;;;;10481271;28;20188;-78
2022/03/09 04:27:36;;;;;;;22.20;13.57;;;1.10;99.90;;;;;;10481514;28;20198;-78
2022/03/09 04:33:00;;;;;;;22.33;13.27;;;1.20;99.90;;;;;;10492201;28;20196;-78
2022/03/09 04:38:23;;;;;;;23.00;13.87;;;1.10;99.90;;;;;;10489428;28;20209;-78
2022/03/09 04:43:45;;;;;;;23.93;16.13;;;1.10;99.90;;;;;;10453188;28;20525;-77
2022/03/09 04:49:07;;;;;;;26.17;15.97;;;1.00;99.90;;;;;;10479773;28;20236;-78
2022/03/09 04:54:29;;;;;;;26.77;14.37;;;1.00;99.90;;;;;;10465919;28;20273;-78
2022/03/09 04:59:51;;;;;;;28.40;16.27;;;1.00;99.90;;;;;;10455090;28;20201;-77
2022/03/09 05:05:13;;;;;;;24.67;14.87;;;1.00;99.90;;;;;;10443500;28;20484;-77
2022/03/09 05:10:37;;;;;;;24.00;14.17;;;1.00;99.90;;;;;;10458693;28;20212;-77
2022/03/09 05:15:59;;;;;;;24.83;14.47;;;1.00;99.90;;;;;;10447346;28;20226;-78
2022/03/09 05:21:22;;;;;;;26.50;16.13;;;1.00;99.90;;;;;;10464606;28;20205;-78
2022/03/09 05:26:46;;;;;;;22.87;14.50;;;0.90;99.90;;;;;;10479212;28;20226;-78
2022/03/09 05:32:08;;;;;;;26.70;15.70;;;0.90;99.90;;;;;;10481865;28;20191;-77
2022/03/09 05:37:37;;;;;;;24.70;14.87;;;0.90;99.90;;;;;;10498030;28;20219;-77
2022/03/09 05:42:59;;;;;;;29.40;16.67;;;0.90;99.90;;;;;;10479023;28;20206;-78
2022/03/09 05:48:22;;;;;;;25.93;15.77;;;1.00;99.90;;;;;;10477547;28;20200;-78
2022/03/09 05:53:43;;;;;;;27.70;15.57;;;1.00;99.90;;;;;;10478608;28;20541;-78
2022/03/09 05:59:05;;;;;;;25.00;14.90;;;1.10;99.90;;;;;;10477231;28;20247;-78
2022/03/09 06:04:28;;;;;;;25.87;14.93;;;1.00;99.90;;;;;;10471238;28;20244;-77
2022/03/09 06:09:49;;;;;;;27.73;16.43;;;1.00;99.90;;;;;;10477086;28;20271;-78
2022/03/09 06:15:12;;;;;;;26.93;16.33;;;1.00;99.90;;;;;;10460570;28;20817;-77
2022/03/09 06:20:36;;;;;;;34.47;18.40;;;1.10;99.90;;;;;;10459179;28;20272;-78
2022/03/09 06:25:59;;;;;;;29.30;15.97;;;1.10;99.90;;;;;;10462915;28;20202;-78
2022/03/09 06:31:22;;;;;;;25.13;15.23;;;1.30;99.90;;;;;;10494343;28;20192;-78
2022/03/09 06:36:45;;;;;;;31.97;17.73;;;1.40;99.90;;;;;;10514768;28;20403;-77
2022/03/09 06:42:07;;;;;;;40.40;21.60;;;1.40;99.90;;;;;;10485857;28;20265;-76
2022/03/09 06:47:30;;;;;;;31.17;17.67;;;1.30;99.90;;;;;;10484316;28;20204;-77
2022/03/09 06:52:53;;;;;;;56.73;30.90;;;1.30;99.90;;;;;;10489182;28;20198;-77
2022/03/09 06:58:17;;;;;;;37.40;20.10;;;1.30;99.90;;;;;;10486134;28;20534;-78
2022/03/09 07:03:39;;;;;;;49.30;25.70;;;1.30;99.90;;;;;;10456119;28;20246;-77
2022/03/09 07:09:05;;;;;;;95.13;52.00;;;1.50;99.90;;;;;;10464465;28;20209;-77
2022/03/09 07:14:27;;;;;;;93.57;54.10;;;1.60;99.90;;;;;;10442594;28;20559;-78
2022/03/09 07:19:49;;;;;;;79.30;51.27;;;1.60;99.90;;;;;;10478063;28;20224;-79
2022/03/09 07:25:12;;;;;;;32.27;22.20;;;1.80;99.90;;;;;;10484053;28;20264;-77
2022/03/09 07:30:35;;;;;;;30.63;18.37;;;2.60;99.90;;;;;;10485473;28;20217;-77
2022/03/09 07:35:57;;;;;;;26.23;16.13;;;2.70;99.90;;;;;;10520798;28;20245;-78
2022/03/09 07:41:20;;;;;;;30.73;17.63;;;2.80;99.90;;;;;;10481510;28;20239;-78
2022/03/09 07:46:41;;;;;;;32.33;16.23;;;3.50;99.90;;;;;;10482841;28;20222;-77
2022/03/09 07:52:05;;;;;;;30.23;18.87;;;3.80;99.90;;;;;;10481919;28;20199;-77
2022/03/09 07:57:27;;;;;;;24.70;15.43;;;3.80;99.90;;;;;;10481340;28;20224;-77
2022/03/09 08:02:49;;;;;;;28.47;16.77;;;4.60;99.90;;;;;;10481554;28;20192;-78
2022/03/09 08:08:14;;;;;;;20.50;13.30;;;5.40;99.90;;;;;;10475011;28;20230;-78
2022/03/09 08:13:36;;;;;;;28.43;16.07;;;7.50;99.90;;;;;;10454959;28;20239;-79
2022/03/09 08:18:58;;;;;;;25.53;14.87;;;9.20;99.90;;;;;;10478661;28;20219;-77
2022/03/09 08:24:21;;;;;;;22.17;12.73;;;9.60;99.90;;;;;;10475793;28;20432;-77
2022/03/09 08:29:44;;;;;;;22.48;14.02;;;10.30;98.10;;;;;;10476212;28;20201;-81
2022/03/09 08:35:07;;;;;;;21.98;13.50;;;10.60;96.60;;;;;;10449567;28;20238;-79
2022/03/09 08:40:30;;;;;;;18.42;11.88;;;11.80;90.90;;;;;;10472251;28;20414;-77
2022/03/09 08:45:52;;;;;;;18.63;12.75;;;13.00;70.60;;;;;;10475340;28;20500;-80
2022/03/09 08:51:17;;;;;;;19.58;12.80;;;13.60;57.00;;;;;;10433037;28;20196;-79
2022/03/09 08:56:39;;;;;;;17.08;11.40;;;13.90;54.30;;;;;;10437590;28;20242;-78
2022/03/09 09:02:02;;;;;;;17.75;10.70;;;14.40;50.60;;;;;;10461350;28;20298;-79
2022/03/09 09:07:24;;;;;;;15.90;10.15;;;14.40;47.60;;;;;;10457782;28;20337;-80
2022/03/09 09:12:46;;;;;;;18.88;11.38;;;14.60;45.70;;;;;;10472230;28;20598;-80
2022/03/09 09:18:09;;;;;;;14.75;10.70;;;15.10;42.50;;;;;;10477071;28;20227;-79
2022/03/09 09:23:41;;;;;;;13.90;10.10;;;15.10;41.20;;;;;;10459425;28;20428;-80
2022/03/09 09:29:02;;;;;;;16.48;12.18;;;14.60;42.30;;;;;;10459982;28;20196;-80
2022/03/09 09:34:25;;;;;;;27.63;14.77;;;12.50;52.20;;;;;;10476372;28;20211;-80
2022/03/09 09:39:47;;;;;;;13.77;10.35;;;11.00;90.90;;;;;;10459279;28;20525;-78
2022/03/09 09:45:10;;;;;;;18.13;11.45;;;11.90;87.10;;;;;;10455590;28;20198;-79
2022/03/09 09:50:32;;;;;;;21.02;13.35;;;13.30;66.70;;;;;;10471165;28;20197;-81
2022/03/09 09:55:57;;;;;;;11.70;8.40;;;14.30;52.60;;;;;;10472704;28;20259;-80
2022/03/09 10:01:20;;;;;;;19.60;10.73;;;15.10;48.70;;;;;;10472482;28;20200;-78
2022/03/09 10:06:43;;;;;;;26.33;12.18;;;16.00;40.50;;;;;;10420868;28;20207;-80
2022/03/09 10:12:06;;;;;;;42.08;13.38;;;16.60;38.50;;;;;;10456061;28;20660;-80
2022/03/09 10:17:30;;;;;;;70.57;13.40;;;16.90;35.40;;;;;;10471059;28;20632;-82
2022/03/09 10:23:00;;;;;;;19.35;10.20;;;16.70;34.40;;;;;;10444279;28;20251;-78
2022/03/09 10:28:22;;;;;;;14.40;10.13;;;16.70;34.20;;;;;;10471675;28;20204;-79
2022/03/09 10:33:44;;;;;;;14.30;10.43;;;17.10;32.30;;;;;;10502999;28;20213;-82
2022/03/09 10:39:12;;;;;;;14.73;10.85;;;17.20;31.00;;;;;;10462404;28;20214;-78
2022/03/09 10:44:46;;;;;;;17.65;11.13;;;17.10;30.70;;;;;;10472383;28;20359;-76
2022/03/09 10:50:19;;;;;;;22.23;12.48;;;17.50;29.90;;;;;;10445719;28;20192;-79
2022/03/09 10:55:41;;;;;;;32.97;14.57;;;17.20;30.10;;;;;;10471101;28;20250;-82
2022/03/09 11:01:04;;;;;;;16.55;9.85;;;17.40;29.60;;;;;;10456049;28;20208;-82
2022/03/09 11:06:26;;;;;;;13.35;9.07;;;18.20;29.30;;;;;;10468944;28;20290;-79
2022/03/09 11:11:50;;;;;;;15.60;8.43;;;18.60;27.70;;;;;;10467926;28;20255;-80
2022/03/09 11:17:13;;;;;;;10.30;6.97;;;18.90;26.40;;;;;;10443890;28;20232;-81
2022/03/09 11:22:35;;;;;;;26.02;13.07;;;18.90;26.10;;;;;;10463940;28;20521;-83
2022/03/09 11:27:59;;;;;;;24.33;11.82;;;19.10;26.10;;;;;;10451377;28;20491;-80
2022/03/09 11:33:42;;;;;;;16.27;10.65;;;19.40;25.00;;;;;;10506977;28;20225;-83
2022/03/09 11:39:05;;;;;;;12.65;7.80;;;19.00;25.30;;;;;;10482473;28;20450;-80
2022/03/09 11:44:29;;;;;;;21.65;11.43;;;19.10;24.90;;;;;;10498804;28;20290;-82
2022/03/09 11:49:53;;;;;;;29.17;14.85;;;19.00;25.30;;;;;;10481045;28;20227;-81
2022/03/09 11:55:18;;;;;;;25.70;6.13;;;19.70;24.40;;;;;;10468697;28;20514;-84
2022/03/09 12:01:00;;;;;;;28.48;13.32;;;19.50;23.20;;;;;;10477753;28;20208;-80
2022/03/09 12:06:43;;;;;;;9.23;5.22;;;19.60;23.70;;;;;;10460252;28;20279;-84
2022/03/09 12:12:08;;;;;;;15.63;8.45;;;20.10;22.90;;;;;;10446134;28;20246;-82
2022/03/09 12:17:36;;;;;;;24.40;14.48;;;19.80;22.70;;;;;;10491907;28;20416;-81
2022/03/09 12:23:01;;;;;;;21.30;9.13;;;19.60;23.40;;;;;;10500795;28;20228;-81
2022/03/09 12:28:24;;;;;;;15.65;7.82;;;19.50;23.50;;;;;;10472749;28;20219;-81
2022/03/09 12:33:53;;;;;;;12.05;5.85;;;19.00;23.60;;;;;;10509721;28;20207;-85
2022/03/09 12:39:16;;;;;;;13.30;6.60;;;18.90;23.90;;;;;;10480784;28;20273;-82
2022/03/09 12:44:38;;;;;;;25.48;11.57;;;19.50;23.60;;;;;;10474891;28;20234;-81
2022/03/09 12:50:01;;;;;;;37.47;23.38;;;19.60;22.90;;;;;;10474659;28;20282;-81
2022/03/09 12:55:24;;;;;;;20.05;11.30;;;19.00;23.20;;;;;;10459659;28;20215;-80
2022/03/09 13:00:58;;;;;;;32.28;16.13;;;19.20;23.80;;;;;;10473734;28;20625;-80
2022/03/09 13:06:26;;;;;;;16.80;7.78;;;19.20;23.90;;;;;;10459392;28;20208;-80
2022/03/09 13:11:49;;;;;;;19.48;9.85;;;18.90;23.70;;;;;;10458743;28;20248;-80
2022/03/09 13:17:12;;;;;;;15.25;5.93;;;18.00;24.70;;;;;;10421057;28;20307;-80
2022/03/09 13:22:43;;;;;;;39.70;18.13;;;17.60;25.60;;;;;;10451844;28;20566;-80
2022/03/09 13:28:06;;;;;;;26.80;12.50;;;17.90;25.10;;;;;;10441950;28;20355;-83
2022/03/09 13:33:27;;;;;;;26.70;12.30;;;18.20;24.90;;;;;;10474116;28;20396;-82
2022/03/09 13:38:59;;;;;;;16.13;9.20;;;18.50;24.40;;;;;;10465800;28;20556;-80
2022/03/09 13:44:25;;;;;;;34.53;14.77;;;18.40;24.80;;;;;;10457671;28;20233;-80
2022/03/09 13:49:50;;;;;;;29.85;15.40;;;18.00;24.70;;;;;;10446143;28;20429;-81
2022/03/09 13:55:23;;;;;;;17.98;8.48;;;17.20;26.10;;;;;;10472919;28;20233;-81
2022/03/09 14:00:47;;;;;;;42.03;16.55;;;16.50;26.80;;;;;;10430543;28;20505;-82
2022/03/09 14:06:16;;;;;;;38.33;15.82;;;16.50;27.30;;;;;;10419074;28;20204;-82
2022/03/09 14:11:39;;;;;;;20.92;11.52;;;16.50;27.80;;;;;;10475354;28;20250;-80
2022/03/09 14:17:02;;;;;;;31.65;13.95;;;16.30;28.10;;;;;;10458452;28;20417;-82
2022/03/09 14:22:24;;;;;;;20.60;7.75;;;15.50;28.80;;;;;;10475016;28;20197;-81
2022/03/09 14:27:47;;;;;;;14.95;7.43;;;14.50;30.90;;;;;;10457481;28;20230;-84
2022/03/09 14:33:09;;;;;;;14.10;6.47;;;13.70;34.80;;;;;;10484768;28;20206;-84
2022/03/09 14:38:34;;;;;;;12.57;5.40;;;12.90;43.80;;;;;;10497740;28;20475;-89
2022/03/09 14:43:57;;;;;;;9.73;4.53;;;12.50;49.10;;;;;;10472131;28;20196;-86
2022/03/09 14:49:19;;;;;;;7.93;3.80;;;12.10;56.20;;;;;;10472569;28;20240;-81
2022/03/09 14:54:41;;;;;;;7.30;3.93;;;11.60;60.70;;;;;;10465681;28;20190;-82
2022/03/09 15:00:05;;;;;;;9.27;3.33;;;11.50;61.10;;;;;;10466107;28;20202;-89
2022/03/09 15:05:28;;;;;;;9.93;3.87;;;11.00;65.10;;;;;;10462403;28;20558;-87
2022/03/09 15:10:51;;;;;;;21.23;6.23;;;10.80;72.60;;;;;;10480051;28;20491;-84
2022/03/09 15:16:14;;;;;;;22.20;7.57;;;10.60;75.70;;;;;;10502610;28;20251;-85
2022/03/09 15:21:36;;;;;;;13.13;5.33;;;10.40;79.00;;;;;;10479227;28;20386;-79
2022/03/09 15:27:00;;;;;;;16.57;6.33;;;10.00;84.00;;;;;;10477896;28;20431;-81
2022/03/09 15:32:22;;;;;;;15.20;5.60;;;9.70;90.10;;;;;;10496839;28;20254;-80
2022/03/09 15:37:45;;;;;;;17.30;5.50;;;9.60;92.40;;;;;;10489359;28;20296;-79
2022/03/09 15:43:09;;;;;;;11.67;6.23;;;9.60;93.70;;;;;;10476912;28;20212;-81
2022/03/09 15:48:31;;;;;;;17.70;6.70;;;9.30;95.30;;;;;;10477542;28;20397;-79
2022/03/09 15:53:53;;;;;;;20.17;5.90;;;9.10;95.90;;;;;;10515818;28;20223;-80
2022/03/09 15:59:15;;;;;;;15.70;6.60;;;9.00;97.20;;;;;;10462343;28;20546;-79
2022/03/09 16:04:37;;;;;;;14.50;5.43;;;8.70;98.50;;;;;;10460386;28;20326;-79
2022/03/09 16:10:00;;;;;;;19.47;8.23;;;8.50;99.90;;;;;;10458024;28;20262;-80
2022/03/09 16:15:22;;;;;;;21.93;9.30;;;8.40;99.90;;;;;;10477170;28;20312;-78
2022/03/09 16:20:45;;;;;;;12.37;6.10;;;8.30;99.90;;;;;;10480595;28;20250;-90
2022/03/09 16:26:13;;;;;;;19.70;7.13;;;8.10;99.90;;;;;;10480997;28;20198;-80
2022/03/09 16:31:37;;;;;;;15.47;7.03;;;7.90;99.90;;;;;;10479772;28;20232;-80
2022/03/09 16:36:58;;;;;;;32.37;10.03;;;7.80;99.90;;;;;;10485021;28;20441;-80
2022/03/09 16:42:20;;;;;;;26.60;11.57;;;7.60;99.90;;;;;;10477070;28;20200;-81
2022/03/09 16:47:44;;;;;;;30.27;11.17;;;7.40;99.90;;;;;;10464944;28;20209;-81
2022/03/09 16:53:07;;;;;;;32.27;12.97;;;7.40;99.90;;;;;;10465212;28;20278;-80
2022/03/09 16:58:31;;;;;;;29.80;12.90;;;7.40;99.90;;;;;;10451891;28;20303;-81
2022/03/09 17:03:53;;;;;;;44.43;17.50;;;7.20;99.90;;;;;;10463708;28;20239;-80
2022/03/09 17:09:16;;;;;;;49.00;21.03;;;7.10;99.90;;;;;;10476867;28;20202;-79
2022/03/09 17:14:39;;;;;;;22.57;10.00;;;6.90;99.90;;;;;;10519243;28;20254;-80
2022/03/09 17:20:06;;;;;;;31.37;15.33;;;6.60;99.90;;;;;;10410072;28;20206;-80
2022/03/09 17:25:32;;;;;;;21.80;9.57;;;6.40;99.90;;;;;;10475725;28;20443;-79
2022/03/09 17:30:54;;;;;;;21.80;8.20;;;6.20;99.90;;;;;;10471994;28;20238;-80
2022/03/09 17:36:19;;;;;;;18.40;7.90;;;;;;;;;;10464172;28;20224;-80
2022/03/09 17:41:42;;;;;;;18.07;9.50;;;5.90;99.90;;;;;;10464072;28;20497;-80
2022/03/09 17:47:04;;;;;;;20.13;11.00;;;5.80;99.90;;;;;;10464254;28;20200;-80
2022/03/09 17:52:27;;;;;;;17.97;9.60;;;5.90;99.90;;;;;;10428965;28;20201;-80
2022/03/09 17:57:54;;;;;;;15.47;7.57;;;5.90;99.90;;;;;;10475232;28;20273;-79
2022/03/09 18:03:15;;;;;;;15.83;6.23;;;5.90;99.90;;;;;;10477009;28;20381;-78
2022/03/09 18:08:38;;;;;;;15.27;7.17;;;5.90;99.90;;;;;;10462846;28;20425;-82
2022/03/09 18:14:00;;;;;;;22.30;8.93;;;5.90;99.90;;;;;;10482144;28;20531;-81
2022/03/09 18:19:23;;;;;;;22.70;9.27;;;5.90;99.90;;;;;;10476742;28;20270;-81
2022/03/09 18:24:45;;;;;;;18.90;7.83;;;5.90;99.90;;;;;;10462805;28;20197;-80
2022/03/09 18:30:14;;;;;;;11.67;5.97;;;5.80;99.90;;;;;;10465385;28;20545;-79
2022/03/09 18:35:36;;;;;;;15.33;5.93;;;5.80;99.90;;;;;;10471400;28;20298;-81
2022/03/09 18:40:58;;;;;;;13.43;6.53;;;5.80;99.90;;;;;;10462590;28;20209;-81
2022/03/09 18:46:20;;;;;;;13.43;5.27;;;5.90;99.90;;;;;;10462357;28;20201;-80
2022/03/09 18:51:42;;;;;;;9.90;5.57;;;5.80;99.90;;;;;;10470465;28;20401;-80
2022/03/09 18:57:05;;;;;;;19.27;8.53;;;5.70;99.90;;;;;;10435053;28;20232;-81
2022/03/09 19:02:27;;;;;;;19.27;8.60;;;5.60;99.90;;;;;;10439473;28;20267;-80
2022/03/09 19:07:50;;;;;;;16.63;7.57;;;5.60;99.90;;;;;;10437349;28;20208;-80
2022/03/09 19:13:12;;;;;;;15.20;6.87;;;5.40;99.90;;;;;;10486076;28;20310;-80
2022/03/09 19:18:35;;;;;;;9.50;5.50;;;5.40;99.90;;;;;;10461834;28;20230;-79
2022/03/09 19:23:59;;;;;;;10.70;4.97;;;5.30;99.90;;;;;;10476842;28;20267;-80
2022/03/09 19:29:21;;;;;;;12.60;6.00;;;5.20;99.90;;;;;;10475854;28;20247;-79
2022/03/09 19:34:43;;;;;;;9.07;4.73;;;5.00;99.90;;;;;;10477138;28;20195;-79
2022/03/09 19:40:07;;;;;;;6.87;4.40;;;5.10;99.90;;;;;;10468295;28;20228;-79
2022/03/09 19:45:29;;;;;;;11.13;6.10;;;4.90;99.90;;;;;;10482424;28;20199;-79
2022/03/09 19:50:51;;;;;;;9.13;5.67;;;5.00;99.90;;;;;;10466632;28;20203;-79
2022/03/09 19:56:13;;;;;;;9.60;4.67;;;4.90;99.90;;;;;;10460596;28;20224;-80
2022/03/09 20:01:35;;;;;;;13.70;5.73;;;5.00;99.90;;;;;;10483027;28;20221;-79
2022/03/09 20:06:59;;;;;;;17.33;8.33;;;5.00;99.90;;;;;;10440388;28;20196;-80
2022/03/09 20:12:21;;;;;;;10.67;6.07;;;5.10;99.90;;;;;;10488603;28;20496;-79
2022/03/09 20:17:43;;;;;;;8.77;5.30;;;5.10;99.90;;;;;;10480873;28;20223;-79
2022/03/09 20:23:05;;;;;;;12.43;6.47;;;5.10;99.90;;;;;;10481373;28;20264;-79
2022/03/09 20:28:28;;;;;;;9.60;6.00;;;5.10;99.90;;;;;;10466759;28;20246;-81
2022/03/09 20:33:51;;;;;;;10.97;6.00;;;5.10;99.90;;;;;;10497011;28;20563;-79
2022/03/09 20:39:13;;;;;;;13.50;6.57;;;5.20;99.90;;;;;;10439116;28;20561;-80
2022/03/09 20:44:35;;;;;;;10.37;6.33;;;5.10;99.90;;;;;;10432172;28;20233;-80
2022/03/09 20:49:57;;;;;;;12.67;7.20;;;5.10;99.90;;;;;;10481268;28;20195;-80
2022/03/09 20:55:19;;;;;;;16.70;9.00;;;5.10;99.90;;;;;;10450767;28;20199;-80
2022/03/09 21:00:41;;;;;;;11.20;7.10;;;5.10;99.90;;;;;;10479690;28;20203;-80
2022/03/09 21:06:03;;;;;;;11.53;7.37;;;5.10;99.90;;;;;;10478666;28;20495;-79
2022/03/09 21:11:25;;;;;;;11.67;7.37;;;5.00;99.90;;;;;;10496004;28;20242;-80
2022/03/09 21:16:48;;;;;;;18.37;9.63;;;5.00;99.90;;;;;;10483403;28;20229;-79
2022/03/09 21:22:12;;;;;;;22.73;11.17;;;5.00;99.90;;;;;;10482607;28;20263;-79
2022/03/09 21:27:36;;;;;;;25.93;10.83;;;5.00;99.90;;;;;;10481794;28;20256;-79
2022/03/09 21:32:58;;;;;;;25.33;14.37;;;5.00;99.90;;;;;;10489365;28;20241;-79
2022/03/09 21:38:21;;;;;;;39.00;19.37;;;5.00;99.90;;;;;;10485261;28;20230;-80
2022/03/09 21:43:43;;;;;;;28.63;16.50;;;5.00;99.90;;;;;;10478622;28;20363;-79
2022/03/09 21:49:05;;;;;;;20.43;11.20;;;4.90;99.90;;;;;;10479100;28;20199;-80
2022/03/09 21:54:26;;;;;;;13.63;8.97;;;5.00;99.90;;;;;;10463339;28;20199;-79
2022/03/09 21:59:48;;;;;;;15.50;9.20;;;4.70;99.90;;;;;;10462745;28;20242;-79
2022/03/09 22:05:12;;;;;;;13.40;8.97;;;4.60;99.90;;;;;;10473069;28;20245;-79
2022/03/09 22:10:34;;;;;;;12.77;9.20;;;4.50;99.90;;;;;;10486212;28;20210;-80
2022/03/09 22:15:56;;;;;;;14.70;9.90;;;4.30;99.90;;;;;;10505253;28;20228;-79
2022/03/09 22:21:22;;;;;;;11.97;8.50;;;4.40;99.90;;;;;;10477006;28;20199;-79
2022/03/09 22:26:44;;;;;;;20.90;11.10;;;4.30;99.90;;;;;;10476458;28;20195;-80
2022/03/09 22:32:06;;;;;;;17.20;10.43;;;4.30;99.90;;;;;;10495221;28;20195;-79
2022/03/09 22:37:31;;;;;;;15.60;9.77;;;4.10;99.90;;;;;;10477955;28;20231;-79
2022/03/09 22:42:53;;;;;;;14.30;9.33;;;4.00;99.90;;;;;;10476691;28;20442;-79
2022/03/09 22:48:19;;;;;;;15.97;9.37;;;3.90;99.90;;;;;;10462492;28;20285;-79
2022/03/09 22:53:41;;;;;;;14.40;9.80;;;3.80;99.90;;;;;;10451899;28;20389;-80
2022/03/09 22:59:04;;;;;;;14.23;8.87;;;3.70;99.90;;;;;;10459390;28;20222;-79
2022/03/09 23:04:26;;;;;;;15.40;9.43;;;3.50;99.90;;;;;;10455500;28;20382;-79
2022/03/09 23:09:48;;;;;;;17.00;10.63;;;3.40;99.90;;;;;;10443356;28;20197;-80
2022/03/09 23:15:11;;;;;;;17.53;9.87;;;3.40;99.90;;;;;;10506390;28;20238;-79
2022/03/09 23:20:34;;;;;;;17.23;10.20;;;3.10;99.90;;;;;;10469924;28;20532;-79
2022/03/09 23:25:57;;;;;;;19.13;10.17;;;2.70;99.90;;;;;;10483245;28;20206;-79
2022/03/09 23:31:21;;;;;;;17.30;10.30;;;2.50;99.90;;;;;;10495685;28;20196;-79
2022/03/09 23:36:43;;;;;;;18.67;10.87;;;2.40;99.90;;;;;;10493937;28;20229;-79
2022/03/09 23:42:05;;;;;;;16.73;10.37;;;2.20;99.90;;;;;;10483377;28;20246;-79
2022/03/09 23:47:27;;;;;;;14.47;9.63;;;2.20;99.90;;;;;;10468662;28;20205;-79
2022/03/09 23:52:49;;;;;;;14.87;8.30;;;2.20;99.90;;;;;;10463761;28;20233;-78
2022/03/09 23:58:11;;;;;;;12.97;7.20;;;2.00;99.90;;;;;;10426909;28;20232;-79
